Sylvester, Georgia
Current Conditions -  °F | °C
As of 4:53 PM on Monday 20 Oct 2014 (Local Time) from KABY Reporting Station
Few Clouds Few Clouds  
Wind Chill: 77°   Ceiling: Unl
Heat Index: 79°   Visibility: 10mi
Dew Point: 58°   Wind: 0mph
Humidity: 52%   Direction: NA
Pressure: 30"   Gusts: NA
Location:  31.53°N, 83.83°W
Report Text: KABY 202053Z 00000KT 10SM FEW048 25/14 A3000 RMK AO2 SLP156 T02500144 56018
Loading
Personal Weather Stations






























Interactive Weather Map
Tropical Storm Tracking
New forecast layout! Learn more

10-Day Weather Forecast

Advertisements
Track Severe Weather on mobile